岡山グライダークラブ活動状況掲示板あなたは無料カウンター人目の訪問者です

岡山グライダークラブ
岡山市浦安南町639-1 岡南飛行場
 使用機:シャイベ式 SF25C型 ファルケ   JA2330
      ヴァレンティン式17E型 タイフーン  JA2342
 練習日:毎日曜日  クラブルーム:電話 086-265-1810
この掲示板は岡山グライダークラブの活動状況をお知らせする掲示板です。
!!!この掲示板は投稿規制をしています。!!!
クラブ関連各種情報は 岡山グライダークラブクラブルーム      を       .
  ブリーフイング情報は  岡山グライダークラブブリーフィングルーム  をご覧下さい。 .
※写真はクリックすると拡大して見ることが出来ます。
岡南飛行場へのアクセス等は 岡南飛行場管理事務所 をご覧ください。
クラブの ホームページ ができました。

 
04月05日
by OGC at 2020/4/5(日) 22:18:59 No.20200405211408  削除コメント
1024 x 768 x 108,796バイト
No.1

04月05日
本日の参加者
  会員      16名
  その他      0名


@本日の様子




METAR
RJBK 050000Z 34004KT 280V040 30KM FEW030CU 10/M01 Q1019 A3009
RJOB 050000Z 34010KT 290V040 9999 FEW025 09/M03 Q1018
RJOT 050000Z 01005KT 350V060 9999 FEW030 SCT080 09/M02 Q1018
RJOA 050000Z 34010KT 300V020 9999 FEW030 08/M03 Q1018
TAF
RJOB 042305Z 0500/0606 32008KT 9999 FEW030
RJOT 042308Z 0500/0606 28013KT 9999 FEW030
     BECMG 0508/0510 20005KT
RJOA 042305Z 0500/0606 32011KT 9999 FEW030
     BECMG 0600/0603 11004KT

本日は、先週から続いているファルケの100時間点検を行い、
14時頃、無事完了しました。
上昇率のいい日でしたが、1フライト約10分ということで、
ウロチョロせず、横風着陸の練習を行っていました。

解散    18:30

1番機  13:55離陸 撤収機  18:00着陸 

SF25C JA2330 ファルケ     09Flt.1h50min  
17E   JA2342 タイフーン    00Flt.0h00min  
合計                    09Flt.1h50min




    << 戻る || ホームページ || 最新の掲示板へ